Flight Track Log - Related Links

Times and Time Zones

All times are in EDT time to prevent confusion due to time zone crossing. See the SWA1707 flight status page for this flight to view local times or setup timezone preferences in your user account.

Time Position Orientation Groundspeed Altitude Reporting Facility
EDT Latitude Longitude Course Direction KTS MPH feet Rate Location/Type
Sun 05:57:39 PM 36.1333 -86.6667 360° North 155 178 1,000  Level Nashville TRACON
Sun 05:58:33 PM 36.1833 -86.6667 360° North 189 217 3,300 2,762 Climbing Nashville TRACON
Sun 05:59:45 PM 36.1833 -86.7333 270° West 279 321 6,800 3,126 Climbing Nashville TRACON
Sun 06:02:08 PM 36.0094 -86.8697 212° Southwest 334 384 14,500 3,281 Climbing Memphis Center
Sun 06:03:08 PM 35.9258 -86.9350 212° Southwest 353 406 17,900 3,200 Climbing Memphis Center
Sun 06:04:08 PM 35.8297 -87.0106 213° Southwest 364 419 20,900 2,550 Climbing Memphis Center
Sun 06:05:08 PM 35.7378 -87.0833 213° Southwest 387 445 23,000 1,950 Climbing Memphis Center
Sun 06:06:08 PM 35.6461 -87.1586 214° Southwest 405 466 24,800 1,950 Climbing Memphis Center
Sun 06:07:08 PM 35.5436 -87.2264 208° Southwest 410 472 26,900 2,000 Climbing Memphis Center
Sun 06:08:08 PM 35.4367 -87.2939 207° Southwest 425 489 28,800 1,800 Climbing Memphis Center
Sun 06:09:08 PM 35.3300 -87.3692 210° Southwest 434 499 30,500 1,750 Climbing Memphis Center
Sun 06:10:08 PM 35.2211 -87.4392 208° Southwest 439 505 32,300 1,850 Climbing Memphis Center
Sun 06:11:08 PM 35.1017 -87.5067 205° Southwest 462 532 34,200 1,600 Climbing Memphis Center
Sun 06:12:08 PM 35.0031 -87.5658 206° Southwest 462 532 35,500 1,350 Climbing Memphis Center
Sun 06:13:08 PM 34.8875 -87.6203 201° Southwest 451 519 36,900 1,250 Climbing Memphis Center
Sun 06:14:08 PM 34.7658 -87.6975 208° Southwest 446 513 38,000 550 Climbing Memphis Center
Sun 06:15:08 PM 34.6714 -87.7586 208° Southwest 446 513 38,000  Level Memphis Center
Sun 06:16:08 PM 34.5619 -87.8225 206° Southwest 446 513 38,000  Level Memphis Center
Sun 06:18:08 PM 34.3433 -87.9547 207° Southwest 438 504 38,000  Level Memphis Center
Sun 06:19:08 PM 34.2403 -88.0131 205° Southwest 438 504 38,000  Level Memphis Center
Sun 06:20:08 PM 34.1289 -88.0789 206° Southwest 438 504 38,000  Level Memphis Center
Sun 06:21:08 PM 34.0153 -88.1469 206° Southwest 438 504 38,000  Level Memphis Center
Sun 06:22:08 PM 33.9036 -88.2147 207° Southwest 438 504 38,000  Level Memphis Center
Sun 06:23:08 PM 33.7964 -88.2800 207° Southwest 438 504 38,000  Level Memphis Center
Sun 06:24:08 PM 33.6867 -88.3400 204° Southwest 438 504 38,000  Level Memphis Center
Sun 06:26:08 PM 33.4883 -88.4617 207° Southwest 427 491 38,000  Level Memphis Center
Sun 06:27:08 PM 33.3806 -88.5214 205° Southwest 422 486 38,000  Level Memphis Center
Sun 06:28:08 PM 33.2731 -88.5831 206° Southwest 422 486 38,000 -100 Level Memphis Center
Sun 06:29:08 PM 33.1653 -88.6475 207° Southwest 427 491 37,800 -600 Descending Memphis Center
Sun 06:30:08 PM 33.0575 -88.7064 205° Southwest 427 491 36,800 -900 Descending Memphis Center
Sun 06:31:08 PM 32.9519 -88.7678 206° Southwest 427 491 36,000 -400 Descending Memphis Center
Sun 06:32:08 PM 32.8442 -88.8317 206° Southwest 422 486 36,000  Level Memphis Center
Sun 06:33:08 PM 32.7364 -88.8928 206° Southwest 422 486 36,000 -133 Level Memphis Center
Sun 06:35:08 PM 32.5247 -89.0119 205° Southwest 422 486 35,600 -333 Descending Memphis Center
Sun 06:36:08 PM 32.4189 -89.0703 205° Southwest 422 486 35,000 -300 Descending Memphis Center
Sun 06:37:08 PM 32.3172 -89.1283 206° Southwest 422 486 35,000  Level Memphis Center
Sun 06:38:08 PM 32.2114 -89.1886 206° Southwest 422 486 35,000  Level Memphis Center
Sun 06:39:08 PM 32.1075 -89.2489 206° Southwest 422 486 35,000  Level Memphis Center
Sun 06:40:08 PM 32.0014 -89.3039 204° Southwest 422 486 35,000 -1,214 Level Memphis Center
Sun 06:41:56 PM 31.8022 -89.4142 205° Southwest 418 481 31,600 -2,153 Descending Houston Center
Sun 06:42:58 PM 31.6961 -89.4736 205° Southwest 423 487 28,900 -2,177 Descending Houston Center
Sun 06:44:00 PM 31.6131 -89.5419 215° Southwest 391 450 27,100 -1,500 Descending Houston Center
Sun 06:45:02 PM 31.5219 -89.6297 219° Southwest 355 409 25,800 -1,065 Descending Houston Center
Sun 06:46:04 PM 31.4453 -89.7017 219° Southwest 354 407 24,900 -871 Descending Houston Center
Sun 06:47:06 PM 31.3686 -89.7747 219° Southwest 356 410 24,000 -774 Descending Houston Center
Sun 06:48:08 PM 31.2914 -89.8469 219° Southwest 355 409 23,300 -823 Descending Houston Center
Sun 06:49:10 PM 31.2039 -89.9025 209° Southwest 358 412 22,300 -968 Descending Houston Center
Sun 06:50:12 PM 31.1106 -89.9450 201° Southwest 361 415 21,300 -1,258 Descending Houston Center
Sun 06:51:14 PM 30.9981 -89.9958 201° Southwest 363 418 19,700 -1,597 Descending Houston Center
Sun 06:52:16 PM 30.9078 -90.0367 201° Southwest 354 407 18,000 -1,680 Descending Houston Center
Sun 06:53:19 PM 30.8189 -90.0767 201° Southwest 346 398 16,200 -1,818 Descending Houston Center
Sun 06:53:55 PM 30.7572 -90.1061 202° Southwest 336 387 15,000 -1,645 Descending Houston Center
Sun 06:54:21 PM 30.7333 -90.1158 199° South 337 388 14,500 -1,700 Descending Houston Center
Sun 06:54:55 PM 30.6728 -90.1436 202° Southwest 330 380 13,300 -1,645 Descending Houston Center
Sun 06:55:23 PM 30.6483 -90.1531 198° South 330 380 12,800 -1,475 Descending Houston Center
Sun 06:55:56 PM 30.5881 -90.1808 202° Southwest 321 369 11,800 -1,548 Descending Houston Center
Sun 06:56:25 PM 30.5506 -90.1972 201° Southwest 318 366 11,200 -1,309 Descending Houston Center
Sun 06:56:51 PM 30.5114 -90.2008 185° South 312 359 10,600 -1,448 Descending Houston Center
Sun 06:57:52 PM 30.4256 -90.1925 175° South 311 358 9,100 -1,531 Descending Houston Center
Sun 06:58:29 PM 30.3808 -90.1886 176° South 308 354 8,100 -1,600 Descending Houston Center
Sun 06:58:52 PM 30.3397 -90.1864 177° South 309 356 7,500 -1,429 Descending Houston Center
Sun 06:59:53 PM 30.2561 -90.1825 178° South 301 346 6,100 -1,248 Descending Houston Center
Sun 07:00:33 PM 30.2144 -90.1792 176° South 302 348 5,400 -1,200 Descending Houston Center
Sun 07:00:48 PM 30.1825 -90.1733 171° South 287 330 5,000 -1,021 Descending Houston Center
Sun 07:02:07 PM 30.0817 -90.1536 170° South 276 318 3,800 -902 Descending Houston Center
Sun 07:03:01 PM 30.0111 -90.1661 189° South 273 314 3,000 -587 Descending Houston Center
Sun 07:03:39 PM 29.9728 -90.1722 188° South 275 316 2,900 -197 Descending Houston Center
Sun 07:04:02 PM 29.9383 -90.1786 189° South 249 287 2,800 -484 Descending Houston Center
Sun 07:04:41 PM 29.9056 -90.1842 188° South 261 300 2,400 -411 Descending Houston Center
Sun 07:05:15 PM 29.8872 -90.2142 235° Southwest 162 186 2,300 -290 Descending Houston Center
Sun 07:05:43 PM 29.8925 -90.2275 295° West 199 229 2,100 -333 Descending Houston Center
Sun 07:06:09 PM 29.9008 -90.2522 291° West 134 154 2,000 -484 Descending Houston Center
Sun 07:06:45 PM 29.9186 -90.2711 317° Northwest 172 198 1,600 -764 Descending Houston Center
Sun 07:07:04 PM 29.9286 -90.2703 North 134 154 1,300 -968 Descending Houston Center
Sun 07:07:47 PM 29.9547 -90.2617 16° North 147 169 600 -885 Descending Houston Center
Sun 07:08:05 PM 29.9636 -90.2592 14° North 133 153 400 -667 Descending Houston Center

Login

Don't have an account? Register now (free) for customized features, flight alerts, and more!